createdAt,value
2019-01-30T00:02:03.145Z,91.00
2019-01-30T00:04:30.937Z,90.90
2019-01-30T00:06:58.755Z,91.10
2019-01-30T00:09:26.602Z,90.90
2019-01-30T00:11:54.414Z,91.20
2019-01-30T00:14:22.175Z,91.40
2019-01-30T00:16:51.886Z,91.60
2019-01-30T00:19:19.821Z,91.40
2019-01-30T00:21:47.659Z,91.10
2019-01-30T00:24:15.423Z,91.60
2019-01-30T00:26:43.175Z,91.20
2019-01-30T00:29:11.175Z,91.20
2019-01-30T00:31:38.986Z,90.90
2019-01-30T00:34:06.786Z,90.90
2019-01-30T00:36:34.538Z,90.90
2019-01-30T00:39:07.734Z,90.50
2019-01-30T00:41:35.557Z,90.70
2019-01-30T00:44:03.858Z,90.80
2019-01-30T00:46:51.127Z,90.50
2019-01-30T00:49:18.933Z,90.60
2019-01-30T00:51:46.698Z,90.20
2019-01-30T00:54:14.472Z,90.80
2019-01-30T00:56:42.205Z,90.90
2019-01-30T00:59:10.019Z,90.90
2019-01-30T01:01:37.809Z,91.10
2019-01-30T01:04:05.586Z,90.90
2019-01-30T01:06:33.313Z,90.70
2019-01-30T01:09:01.092Z,90.70
2019-01-30T01:11:28.902Z,89.90
2019-01-30T01:13:56.663Z,89.50
2019-01-30T01:16:24.512Z,89.60
2019-01-30T01:18:52.560Z,89.10
2019-01-30T01:21:20.373Z,90.20
2019-01-30T01:23:48.154Z,89.50
2019-01-30T01:26:15.986Z,88.80
2019-01-30T01:28:43.758Z,88.30
2019-01-30T01:31:11.591Z,87.80
2019-01-30T01:33:39.310Z,87.80
2019-01-30T01:36:07.252Z,87.90
2019-01-30T01:38:35.127Z,86.60
2019-01-30T01:41:02.899Z,86.60
2019-01-30T01:43:30.757Z,85.80
2019-01-30T01:45:58.518Z,85.90
2019-01-30T01:48:26.275Z,85.10
2019-01-30T01:50:54.045Z,85.70
2019-01-30T01:53:21.854Z,84.40
2019-01-30T01:55:49.662Z,84.70
2019-01-30T01:58:17.469Z,83.70
2019-01-30T02:00:45.284Z,84.30
2019-01-30T02:03:13.049Z,83.00
2019-01-30T02:05:40.861Z,83.00
2019-01-30T02:08:08.667Z,83.00
2019-01-30T02:10:55.952Z,83.10
2019-01-30T02:13:23.699Z,83.80
2019-01-30T02:15:51.491Z,83.00
2019-01-30T02:18:19.484Z,83.00
2019-01-30T02:20:47.279Z,82.90
2019-01-30T02:23:15.257Z,83.00
2019-01-30T02:25:43.037Z,83.60
2019-01-30T02:28:30.299Z,83.10
2019-01-30T02:30:58.106Z,83.80
2019-01-30T02:33:25.895Z,82.90
2019-01-30T02:35:53.704Z,82.40
2019-01-30T02:38:21.514Z,82.50
2019-01-30T02:41:08.799Z,82.30
2019-01-30T02:43:36.579Z,83.50
2019-01-30T02:46:04.416Z,82.40
2019-01-30T02:48:32.321Z,81.80
2019-01-30T02:51:00.136Z,81.70
2019-01-30T02:53:27.970Z,82.30
2019-01-30T02:55:55.766Z,81.60
2019-01-30T02:58:23.712Z,81.50
2019-01-30T03:00:58.923Z,81.00
2019-01-30T03:03:21.191Z,80.90
2019-01-30T03:05:48.989Z,80.90
2019-01-30T03:08:27.071Z,81.20
2019-01-30T03:10:54.903Z,80.60
2019-01-30T03:13:22.696Z,80.80
2019-01-30T03:15:50.489Z,80.90
2019-01-30T03:18:18.374Z,80.60
2019-01-30T03:20:46.157Z,80.60
2019-01-30T03:23:13.979Z,80.30
2019-01-30T03:25:41.787Z,80.30
2019-01-30T03:28:09.574Z,80.50
2019-01-30T03:30:37.353Z,80.10
2019-01-30T03:33:05.160Z,80.10
2019-01-30T03:35:32.957Z,79.80
2019-01-30T03:38:00.825Z,80.80
2019-01-30T03:40:29.695Z,79.70
2019-01-30T03:42:57.511Z,80.30
2019-01-30T03:45:25.294Z,80.00
2019-01-30T03:47:53.033Z,79.60
2019-01-30T03:50:20.815Z,79.50
2019-01-30T03:52:48.808Z,79.00
2019-01-30T03:55:16.824Z,79.30
2019-01-30T03:57:44.683Z,79.30
2019-01-30T04:00:19.123Z,79.50
2019-01-30T04:02:47.043Z,78.70
2019-01-30T04:05:14.803Z,78.40
2019-01-30T04:07:42.591Z,78.70
2019-01-30T04:10:13.951Z,78.60
2019-01-30T04:13:01.201Z,79.30
2019-01-30T04:15:29.012Z,80.10
2019-01-30T04:18:16.490Z,78.90
2019-01-30T04:20:44.329Z,78.70
2019-01-30T04:23:12.073Z,78.70
2019-01-30T04:25:39.892Z,79.50
2019-01-30T04:28:12.662Z,78.90
2019-01-30T04:30:40.459Z,79.00
2019-01-30T04:33:08.276Z,79.30
2019-01-30T04:35:36.095Z,78.90
2019-01-30T04:38:03.981Z,79.50
2019-01-30T04:40:41.971Z,77.90
2019-01-30T04:43:09.774Z,77.80
2019-01-30T04:45:37.566Z,77.80
2019-01-30T04:48:10.467Z,77.80
2019-01-30T04:50:38.232Z,77.80
2019-01-30T04:53:06.184Z,77.80
2019-01-30T04:55:33.987Z,78.10
2019-01-30T04:58:16.869Z,77.80
2019-01-30T05:00:44.633Z,77.80
2019-01-30T05:03:12.426Z,77.80
2019-01-30T05:05:40.220Z,77.80
2019-01-30T05:08:07.991Z,77.80
2019-01-30T05:10:35.807Z,77.70
2019-01-30T05:13:23.098Z,77.80
2019-01-30T05:15:50.911Z,77.80
2019-01-30T05:18:33.948Z,77.20
2019-01-30T05:21:01.752Z,76.20
2019-01-30T05:23:29.513Z,75.90
2019-01-30T05:25:59.965Z,76.70
2019-01-30T05:28:28.778Z,76.70
2019-01-30T05:30:56.513Z,76.50
2019-01-30T05:33:24.408Z,75.60
2019-01-30T05:35:52.226Z,76.30
2019-01-30T05:39:00.164Z,75.70
2019-01-30T05:41:27.930Z,75.20
2019-01-30T05:43:55.769Z,75.50
2019-01-30T05:46:24.064Z,74.60
2019-01-30T05:48:51.892Z,74.10
2019-01-30T05:51:19.700Z,73.40
2019-01-30T05:53:47.491Z,73.40
2019-01-30T05:56:15.283Z,72.90
2019-01-30T05:58:44.276Z,73.70
2019-01-30T06:01:12.078Z,72.90
2019-01-30T06:03:39.888Z,72.80
2019-01-30T06:06:07.692Z,73.50
2019-01-30T06:08:36.073Z,73.50
2019-01-30T06:11:03.988Z,72.90
2019-01-30T06:13:31.833Z,72.90
2019-01-30T06:15:59.639Z,72.90
2019-01-30T06:18:27.483Z,73.20
2019-01-30T06:20:55.277Z,73.00
2019-01-30T06:23:23.070Z,73.30
2019-01-30T06:25:51.140Z,73.20
2019-01-30T06:28:29.769Z,73.20
2019-01-30T06:30:57.583Z,73.00
2019-01-30T06:33:25.449Z,73.10
2019-01-30T06:35:53.254Z,73.20
2019-01-30T06:38:21.156Z,72.90
2019-01-30T06:40:48.930Z,72.90
2019-01-30T06:43:16.800Z,72.80
2019-01-30T06:45:44.531Z,73.00
2019-01-30T06:48:12.495Z,72.90
2019-01-30T06:50:42.038Z,73.00
2019-01-30T06:53:09.853Z,72.70
2019-01-30T06:55:37.703Z,73.10
2019-01-30T06:58:05.757Z,72.90
2019-01-30T07:00:33.636Z,72.90
2019-01-30T07:03:01.495Z,73.10
2019-01-30T07:05:29.271Z,73.00
2019-01-30T07:07:57.092Z,73.00
2019-01-30T07:10:28.339Z,73.00
2019-01-30T07:12:56.128Z,73.20
2019-01-30T07:15:24.076Z,72.40
2019-01-30T07:17:52.328Z,72.00
2019-01-30T07:20:20.160Z,71.30
2019-01-30T07:22:47.945Z,70.90
2019-01-30T07:25:17.244Z,70.20
2019-01-30T07:27:50.291Z,70.80
2019-01-30T07:30:27.327Z,70.70
2019-01-30T07:32:55.099Z,69.60
2019-01-30T07:35:23.126Z,69.70
2019-01-30T07:37:51.098Z,69.80
2019-01-30T07:40:18.910Z,69.00
2019-01-30T07:42:55.053Z,69.80
2019-01-30T07:45:33.090Z,70.00
2019-01-30T07:48:02.315Z,69.80
2019-01-30T07:50:30.175Z,69.70
2019-01-30T07:52:58.936Z,69.50
2019-01-30T07:55:27.172Z,69.00
2019-01-30T07:57:54.967Z,68.90
2019-01-30T08:00:42.214Z,68.90
2019-01-30T08:03:10.044Z,71.10
2019-01-30T08:05:37.818Z,68.90
2019-01-30T08:08:05.642Z,68.70
2019-01-30T08:10:33.471Z,68.50
2019-01-30T08:13:01.239Z,68.10
2019-01-30T08:15:28.982Z,69.30
2019-01-30T08:18:02.186Z,69.40
2019-01-30T08:20:29.991Z,69.50
2019-01-30T08:22:58.045Z,69.40
2019-01-30T08:25:26.294Z,69.90
2019-01-30T08:27:54.363Z,70.60
2019-01-30T08:30:28.705Z,71.90
2019-01-30T08:33:04.194Z,72.20
2019-01-30T08:35:29.753Z,73.30
2019-01-30T08:37:57.597Z,73.80
2019-01-30T08:40:25.469Z,73.90
2019-01-30T08:42:53.263Z,75.10
2019-01-30T08:45:27.381Z,76.80
2019-01-30T08:48:00.574Z,77.10
2019-01-30T08:50:28.577Z,78.40
2019-01-30T08:52:56.754Z,78.40
2019-01-30T08:55:24.505Z,78.80
2019-01-30T08:57:52.345Z,79.40
2019-01-30T09:00:21.918Z,78.80
2019-01-30T09:02:49.707Z,78.60
2019-01-30T09:05:17.477Z,78.70
2019-01-30T09:07:45.354Z,79.10
2019-01-30T09:10:20.567Z,78.60
2019-01-30T09:12:48.549Z,78.60
2019-01-30T09:15:18.811Z,78.60
2019-01-30T09:17:47.035Z,78.60
2019-01-30T09:20:17.784Z,78.80
2019-01-30T09:22:45.599Z,77.70
2019-01-30T09:25:16.607Z,78.30
2019-01-30T09:27:50.052Z,78.30
2019-01-30T09:30:23.728Z,77.60
2019-01-30T09:32:51.732Z,77.30
2019-01-30T09:35:19.582Z,76.90
2019-01-30T09:38:02.413Z,76.90
2019-01-30T09:40:30.208Z,76.80
2019-01-30T09:42:58.024Z,76.80
2019-01-30T09:45:25.848Z,77.30
2019-01-30T09:47:53.693Z,77.50
2019-01-30T09:50:21.524Z,76.90
2019-01-30T09:52:49.836Z,76.70
2019-01-30T09:55:18.129Z,77.00
2019-01-30T09:58:05.405Z,75.70
2019-01-30T10:00:35.371Z,77.60
2019-01-30T10:03:03.780Z,76.20
2019-01-30T10:05:31.535Z,74.70
2019-01-30T10:07:59.364Z,74.90
2019-01-30T10:10:30.413Z,73.90
2019-01-30T10:12:58.352Z,74.00
2019-01-30T10:15:30.024Z,74.30
2019-01-30T10:17:57.993Z,74.40
2019-01-30T10:20:26.603Z,74.00
2019-01-30T10:22:54.486Z,74.80
2019-01-30T10:25:22.278Z,73.90
2019-01-30T10:27:50.277Z,74.00
2019-01-30T10:30:22.397Z,73.90
2019-01-30T10:32:50.175Z,74.20
2019-01-30T10:35:18.095Z,73.90
2019-01-30T10:37:45.978Z,74.20
2019-01-30T10:40:16.237Z,74.00
2019-01-30T10:42:44.230Z,74.00
2019-01-30T10:45:12.230Z,74.00
2019-01-30T10:47:40.049Z,74.20
2019-01-30T10:50:10.243Z,74.10
2019-01-30T10:52:37.999Z,74.10
2019-01-30T10:55:09.240Z,73.80
2019-01-30T10:57:42.421Z,73.40
2019-01-30T11:00:16.231Z,72.00
2019-01-30T11:02:46.438Z,72.00
2019-01-30T11:05:14.936Z,70.80
2019-01-30T11:07:42.881Z,70.20
2019-01-30T11:10:12.503Z,69.50
2019-01-30T11:12:40.355Z,69.60
2019-01-30T11:15:11.215Z,68.00
2019-01-30T11:17:39.005Z,67.10
2019-01-30T11:20:08.618Z,65.80
2019-01-30T11:22:36.407Z,64.90
2019-01-30T11:25:09.261Z,64.70
2019-01-30T11:27:37.055Z,63.40
2019-01-30T11:30:06.487Z,62.00
2019-01-30T11:32:34.243Z,60.60
2019-01-30T11:35:02.006Z,60.80
2019-01-30T11:37:29.764Z,58.40
2019-01-30T11:39:57.570Z,57.30
2019-01-30T11:42:26.046Z,56.20
2019-01-30T11:44:53.839Z,55.20
2019-01-30T11:47:21.633Z,54.80
2019-01-30T11:49:49.547Z,56.10
2019-01-30T11:52:17.415Z,56.10
2019-01-30T11:54:45.255Z,56.10
2019-01-30T11:57:13.021Z,56.00
2019-01-30T11:59:40.819Z,55.90
2019-01-30T12:02:08.657Z,57.20
2019-01-30T12:04:36.444Z,58.20
2019-01-30T12:07:04.337Z,58.40
2019-01-30T12:09:32.263Z,59.50
2019-01-30T12:12:00.040Z,61.00
2019-01-30T12:14:27.827Z,62.00
2019-01-30T12:16:55.692Z,60.90
2019-01-30T12:19:26.650Z,60.50
2019-01-30T12:21:54.505Z,61.20
2019-01-30T12:24:22.409Z,60.60
2019-01-30T12:26:50.203Z,62.10
2019-01-30T12:29:18.187Z,63.00
2019-01-30T12:31:49.999Z,62.10
2019-01-30T12:34:27.823Z,62.10
2019-01-30T12:36:47.697Z,60.60
2019-01-30T12:39:15.591Z,61.10
2019-01-30T12:41:43.381Z,62.40
2019-01-30T12:44:11.206Z,62.10
2019-01-30T12:46:39.029Z,60.80
2019-01-30T12:49:06.994Z,60.60
2019-01-30T12:51:36.254Z,60.40
2019-01-30T12:54:04.512Z,60.90
2019-01-30T12:56:32.505Z,61.10
2019-01-30T12:59:00.290Z,61.80
2019-01-30T13:01:28.137Z,62.00
2019-01-30T13:03:55.986Z,62.10
2019-01-30T13:06:23.775Z,61.40
2019-01-30T13:08:51.640Z,61.40
2019-01-30T13:11:19.426Z,61.70
2019-01-30T13:13:47.267Z,60.90
2019-01-30T13:16:15.097Z,60.80
2019-01-30T13:18:42.978Z,61.60
2019-01-30T13:21:10.771Z,61.10
2019-01-30T13:23:38.631Z,61.50
2019-01-30T13:26:06.547Z,62.20
2019-01-30T13:28:34.520Z,61.50
2019-01-30T13:31:02.299Z,61.50
2019-01-30T13:33:30.066Z,62.00
2019-01-30T13:35:57.859Z,61.40
2019-01-30T13:38:25.648Z,62.30
2019-01-30T13:40:53.463Z,61.70
2019-01-30T13:43:21.699Z,61.50
2019-01-30T13:45:49.542Z,63.20
2019-01-30T13:48:20.979Z,61.80
2019-01-30T13:51:08.627Z,62.40
2019-01-30T13:53:37.974Z,64.00
2019-01-30T13:56:05.799Z,62.90
2019-01-30T13:58:38.817Z,61.50
2019-01-30T14:01:17.021Z,62.30
2019-01-30T14:03:36.424Z,62.00
2019-01-30T14:06:04.245Z,61.60
2019-01-30T14:08:32.260Z,61.40
2019-01-30T14:11:00.004Z,62.40
2019-01-30T14:13:27.813Z,62.10
2019-01-30T14:15:55.583Z,62.40
2019-01-30T14:18:23.483Z,63.30
2019-01-30T14:20:51.268Z,63.90
2019-01-30T14:23:19.026Z,64.10
2019-01-30T14:25:46.851Z,65.10
2019-01-30T14:28:14.628Z,65.10
2019-01-30T14:30:42.380Z,65.10
2019-01-30T14:33:10.165Z,65.00
2019-01-30T14:35:44.294Z,65.10
2019-01-30T14:38:12.247Z,65.70
2019-01-30T14:40:40.763Z,65.60
2019-01-30T14:43:09.121Z,65.70
2019-01-30T14:45:36.882Z,65.60
2019-01-30T14:48:04.890Z,65.40
2019-01-30T14:50:32.725Z,67.90
2019-01-30T14:53:00.482Z,67.30
2019-01-30T14:55:28.229Z,66.70
2019-01-30T14:57:56.096Z,65.30
2019-01-30T15:00:29.643Z,66.00
2019-01-30T15:02:57.485Z,66.00
2019-01-30T15:05:25.533Z,67.60
2019-01-30T15:07:53.346Z,68.70
2019-01-30T15:10:22.461Z,70.10
2019-01-30T15:12:53.821Z,67.80
2019-01-30T15:15:24.540Z,68.50
2019-01-30T15:18:00.648Z,68.10
2019-01-30T15:20:31.819Z,67.10
2019-01-30T15:23:05.867Z,65.30
2019-01-30T15:25:33.705Z,65.20
2019-01-30T15:28:04.028Z,65.40
2019-01-30T15:30:46.491Z,63.10
2019-01-30T15:33:14.497Z,63.40
2019-01-30T15:35:42.341Z,63.60
2019-01-30T15:38:13.035Z,63.10
2019-01-30T15:40:40.842Z,63.50
2019-01-30T15:43:08.653Z,62.50
2019-01-30T15:45:36.469Z,62.90
2019-01-30T15:48:04.666Z,61.90
2019-01-30T15:50:33.874Z,63.00
2019-01-30T15:53:04.874Z,62.60
2019-01-30T15:55:32.656Z,62.80
2019-01-30T15:58:05.095Z,62.50
2019-01-30T16:01:09.409Z,63.30
2019-01-30T16:03:50.727Z,62.80
2019-01-30T16:06:18.563Z,64.80
2019-01-30T16:08:48.109Z,64.10
2019-01-30T16:11:16.418Z,65.60
2019-01-30T16:13:44.266Z,65.50
2019-01-30T16:16:20.934Z,65.40
2019-01-30T16:18:48.798Z,65.40
2019-01-30T16:21:16.667Z,65.30
2019-01-30T16:23:46.864Z,65.40
2019-01-30T16:26:14.808Z,65.60
2019-01-30T16:28:42.646Z,65.80
2019-01-30T16:31:11.362Z,65.50
2019-01-30T16:33:39.327Z,65.30
2019-01-30T16:36:07.124Z,65.40
2019-01-30T16:38:45.108Z,66.70
2019-01-30T16:41:12.966Z,66.10
2019-01-30T16:43:40.768Z,65.40
2019-01-30T16:46:08.660Z,65.80
2019-01-30T16:48:36.517Z,65.80
2019-01-30T16:51:04.433Z,66.30
2019-01-30T16:53:32.259Z,65.40
2019-01-30T16:56:00.113Z,66.50
2019-01-30T16:58:28.014Z,65.70
2019-01-30T17:00:55.848Z,66.40
2019-01-30T17:03:23.737Z,66.20
2019-01-30T17:05:51.532Z,66.80
2019-01-30T17:08:19.536Z,66.50
2019-01-30T17:10:47.392Z,67.00
2019-01-30T17:13:15.217Z,66.00
2019-01-30T17:15:43.035Z,67.30
2019-01-30T17:18:13.086Z,68.90
2019-01-30T17:20:41.093Z,67.60
2019-01-30T17:23:08.910Z,69.00
2019-01-30T17:25:36.884Z,66.20
2019-01-30T17:28:10.018Z,67.50
2019-01-30T17:31:00.696Z,68.20
2019-01-30T17:33:28.517Z,67.30
2019-01-30T17:35:56.318Z,67.40
2019-01-30T17:38:25.225Z,67.30
2019-01-30T17:40:54.968Z,67.20
2019-01-30T17:43:23.601Z,66.40
2019-01-30T17:45:51.421Z,67.60
2019-01-30T17:48:19.282Z,67.70
2019-01-30T17:50:47.044Z,67.10
2019-01-30T17:53:14.825Z,67.80
2019-01-30T17:55:42.869Z,67.90
2019-01-30T17:58:15.939Z,68.00
2019-01-30T18:00:52.114Z,68.60
2019-01-30T18:03:19.948Z,68.30
2019-01-30T18:05:47.863Z,68.00
2019-01-30T18:08:15.874Z,68.40
2019-01-30T18:10:43.718Z,68.20
2019-01-30T18:13:11.530Z,68.60
2019-01-30T18:15:55.039Z,69.00
2019-01-30T18:21:11.597Z,68.70
2019-01-30T18:23:42.968Z,69.10
2019-01-30T18:26:14.058Z,68.90
2019-01-30T18:29:09.590Z,69.10
2019-01-30T18:31:42.367Z,68.80
2019-01-30T18:34:10.318Z,69.40
2019-01-30T18:36:41.304Z,69.00
2019-01-30T18:39:09.336Z,70.00
2019-01-30T18:41:37.197Z,70.70
2019-01-30T18:44:05.030Z,69.30
2019-01-30T18:46:32.827Z,69.10
2019-01-30T18:49:00.712Z,69.30
2019-01-30T18:51:30.882Z,70.20
2019-01-30T18:53:59.218Z,70.70
2019-01-30T18:56:27.020Z,69.40
2019-01-30T18:58:55.036Z,70.40
2019-01-30T19:01:22.886Z,70.80
2019-01-30T19:03:50.725Z,70.60
2019-01-30T19:06:18.617Z,70.10
2019-01-30T19:08:48.054Z,71.40
2019-01-30T19:11:16.948Z,71.30
2019-01-30T19:13:44.755Z,71.80
2019-01-30T19:16:12.569Z,71.30
2019-01-30T19:18:40.525Z,71.40
2019-01-30T19:21:08.334Z,72.00
2019-01-30T19:23:36.177Z,71.80
2019-01-30T19:26:04.470Z,70.50
2019-01-30T19:28:37.438Z,70.70
2019-01-30T19:31:05.357Z,70.90
2019-01-30T19:33:52.599Z,71.50
2019-01-30T19:36:20.422Z,73.90
2019-01-30T19:38:48.374Z,73.60
2019-01-30T19:41:16.190Z,75.00
2019-01-30T19:43:44.072Z,75.20
2019-01-30T19:46:11.945Z,75.20
2019-01-30T19:48:40.266Z,75.20
2019-01-30T19:51:08.083Z,75.20
2019-01-30T19:53:35.964Z,75.20
2019-01-30T19:56:04.143Z,76.20
2019-01-30T19:58:32.021Z,76.80
2019-01-30T20:00:59.921Z,76.90
2019-01-30T20:03:31.656Z,77.60
2019-01-30T20:05:59.562Z,77.90
2019-01-30T20:08:30.484Z,78.90
2019-01-30T20:10:58.397Z,79.60
2019-01-30T20:13:26.244Z,80.80
2019-01-30T20:15:54.237Z,81.20
2019-01-30T20:18:22.927Z,81.50
2019-01-30T20:20:50.847Z,81.20
2019-01-30T20:23:18.927Z,81.20
2019-01-30T20:25:46.905Z,81.50
2019-01-30T20:28:19.891Z,80.90
2019-01-30T20:30:47.765Z,80.40
2019-01-30T20:33:15.698Z,80.50
2019-01-30T20:35:43.517Z,80.50
2019-01-30T20:38:16.383Z,80.50
2019-01-30T20:40:44.246Z,79.70
2019-01-30T20:43:12.037Z,79.90
2019-01-30T20:45:39.967Z,79.20
2019-01-30T20:48:08.582Z,80.30
2019-01-30T20:50:36.447Z,79.40
2019-01-30T20:53:04.303Z,79.10
2019-01-30T20:55:32.170Z,79.90
2019-01-30T20:58:00.027Z,78.60
2019-01-30T21:00:31.147Z,77.80
2019-01-30T21:02:59.035Z,76.90
2019-01-30T21:05:27.083Z,75.60
2019-01-30T21:08:00.294Z,76.00
2019-01-30T21:10:34.398Z,75.30
2019-01-30T21:13:02.303Z,75.30
2019-01-30T21:15:30.171Z,73.30
2019-01-30T21:17:58.031Z,72.90
2019-01-30T21:20:25.840Z,71.60
2019-01-30T21:22:53.689Z,71.00
2019-01-30T21:25:21.931Z,70.10
2019-01-30T21:27:49.959Z,70.50
2019-01-30T21:30:24.275Z,70.10
2019-01-30T21:32:52.105Z,70.60
2019-01-30T21:35:19.982Z,70.30
2019-01-30T21:37:49.127Z,70.00
2019-01-30T21:40:17.433Z,70.00
2019-01-30T21:42:45.537Z,70.10
2019-01-30T21:45:19.230Z,70.30
2019-01-30T21:47:47.056Z,70.00
2019-01-30T21:50:15.627Z,70.00
2019-01-30T21:52:43.577Z,70.00
2019-01-30T21:55:15.084Z,70.10
2019-01-30T21:57:42.875Z,70.40
2019-01-30T22:00:17.448Z,71.50
2019-01-30T22:02:47.512Z,72.90
2019-01-30T22:05:16.180Z,73.00
2019-01-30T22:07:44.587Z,72.80
2019-01-30T22:10:15.901Z,72.40
2019-01-30T22:12:43.866Z,73.20
2019-01-30T22:15:13.278Z,71.60
2019-01-30T22:17:46.262Z,71.30
2019-01-30T22:20:17.575Z,71.40
2019-01-30T22:22:45.398Z,71.50
2019-01-30T22:25:20.479Z,71.90
2019-01-30T22:27:45.841Z,71.80
2019-01-30T22:30:29.661Z,71.80
2019-01-30T22:32:57.435Z,71.10
2019-01-30T22:35:25.277Z,70.20
2019-01-30T22:37:53.147Z,71.00
2019-01-30T22:40:21.111Z,70.60
2019-01-30T22:42:48.946Z,69.80
2019-01-30T22:45:17.774Z,69.80
2019-01-30T22:47:45.699Z,69.20
2019-01-30T22:50:14.494Z,70.00
2019-01-30T22:52:42.258Z,67.80
2019-01-30T22:55:12.953Z,69.00
2019-01-30T22:57:40.802Z,68.40
2019-01-30T23:01:04.757Z,68.80
2019-01-30T23:04:39.449Z,69.90
2019-01-30T23:08:09.926Z,69.40
2019-01-30T23:11:33.407Z,69.80
2019-01-30T23:14:26.160Z,69.30
2019-01-30T23:18:02.120Z,69.20
2019-01-30T23:20:41.301Z,69.20
2019-01-30T23:23:56.471Z,68.40
2019-01-30T23:26:53.845Z,68.80
2019-01-30T23:30:20.467Z,68.20
2019-01-30T23:33:31.332Z,69.70
2019-01-30T23:36:29.291Z,68.40
2019-01-30T23:39:19.087Z,68.20
2019-01-30T23:43:03.651Z,69.80
2019-01-30T23:45:58.654Z,69.00
2019-01-30T23:49:33.264Z,69.80
2019-01-30T23:52:41.565Z,68.70
2019-01-30T23:55:20.074Z,67.40
2019-01-30T23:58:40.028Z,68.80
